KPDK/PDK METAR and TAF weather

Enter ICAO airport designator
Station Type Date Time Source
KPDK METAR 2020/07/06 01:53 UTC NOAA

KPDK 060153Z AUTO 08003KT 10SM CLR 27/18 A2997 RMK AO2 SLP128 T02670183


Station Type Date Time Source
KPDK Decoded METAR 2020/07/06 01:53 UTC NOAA

ATLANTA DE KALB-PEACHTREE, GA, United States (KPDK) 33-53N 084-18W 302M
Jul 05, 2020 - 09:53 PM EDT / 2020.07.06 0153 UTC
Wind: from the E (080 degrees) at 3 MPH (3 KT):0
Visibility: 10 mile(s):0
Sky conditions: clear
Temperature: 80.1 F (26.7 C)
Dew Point: 64.9 F (18.3 C)
Relative Humidity: 60%
Pressure (altimeter): 29.97 in. Hg (1014 hPa)
ob: KPDK 060153Z AUTO 08003KT 10SM CLR 27/18 A2997 RMK AO2 SLP128 T02670183
cycle: 2

Station Type Date Time Source
KPDK TAF 2020/07/05 18:34 UTC NOAA

TAF KPDK 051732Z 0518/0618 09005KT P6SM VCSH SCT045 BKN100
TEMPO 0520/0524 VRB15G25KT 3SM TSRA BKN030CB
FM060200 12004KT P6SM SCT060 BKN120
FM061000 09005KT P6SM VCSH BKN012 BKN100
FM061500 10008KT P6SM VCSH BKN025 BKN100

Example: see airport list